Time;durP1;ratioP1;P1;durP2;ratioP2;P2;SDS_P1;SDS_P2;PMS_P1;PMS_P2;Temp;Humidity;BMP_temperature;BMP_pressure;BME280_temperature;BME280_humidity;BME280_pressure;Samples;Min_cycle;Max_cycle;Signal;HPM_P1;HPM_P2
2023/09/07 00:00:21;;;;;;;22.08;14.40;;;;;;;;;;5050819;28;20029;-58
2023/09/07 00:02:46;;;;;;;23.08;14.65;;;;;;;;;;5046537;28;20033;-56
2023/09/07 00:05:14;;;;;;;21.83;14.68;;;;;;;;;;5041312;28;20033;-58
2023/09/07 00:07:42;;;;;;;23.67;14.38;;;;;;;;;;5042602;28;20029;-58
2023/09/07 00:10:08;;;;;;;21.48;14.60;;;;;;;;;;5040171;28;20598;-58
2023/09/07 00:12:33;;;;;;;22.50;14.88;;;;;;;;;;5051236;28;20037;-57
2023/09/07 00:14:59;;;;;;;20.05;13.93;;;;;;;;;;5051869;28;20032;-56
2023/09/07 00:17:25;;;;;;;24.20;13.63;;;;;;;;;;5034516;28;20033;-57
2023/09/07 00:19:52;;;;;;;21.45;12.77;;;;;;;;;;5039176;28;20044;-57
2023/09/07 00:22:17;;;;;;;23.40;12.73;;;;;;;;;;5035228;28;20037;-58
2023/09/07 00:24:43;;;;;;;18.98;12.55;;;;;;;;;;5051551;28;20040;-57
2023/09/07 00:27:11;;;;;;;19.83;12.20;;;;;;;;;;5047094;28;20037;-57
2023/09/07 00:29:37;;;;;;;21.42;12.05;;;;;;;;;;5042374;28;20064;-57
2023/09/07 00:32:03;;;;;;;26.10;12.43;;;;;;;;;;5048809;28;20055;-58
2023/09/07 00:34:28;;;;;;;20.92;12.63;;;;;;;;;;5050534;28;20470;-58
2023/09/07 00:36:54;;;;;;;17.58;12.13;;;;;;;;;;5050281;28;20032;-56
2023/09/07 00:39:19;;;;;;;19.17;11.40;;;;;;;;;;5047967;28;20093;-56
2023/09/07 00:41:44;;;;;;;23.02;12.00;;;;;;;;;;5044306;28;20029;-56
2023/09/07 00:44:10;;;;;;;18.50;12.15;;;;;;;;;;5041534;28;20117;-58
2023/09/07 00:46:36;;;;;;;18.45;11.50;;;;;;;;;;5035655;28;20029;-58
2023/09/07 00:49:02;;;;;;;18.95;11.90;;;;;;;;;;5032903;28;20044;-57
2023/09/07 00:51:28;;;;;;;19.42;11.77;;;;;;;;;;5047530;28;20469;-58
2023/09/07 00:53:54;;;;;;;18.15;11.70;;;;;;;;;;5046240;28;20033;-57
2023/09/07 00:56:20;;;;;;;18.40;12.43;;;;;;;;;;5034443;28;20075;-56
2023/09/07 00:58:48;;;;;;;18.58;12.48;;;;;;;;;;5034921;28;20029;-58
2023/09/07 01:01:13;;;;;;;20.30;12.00;;;;;;;;;;5033141;28;20029;-58
2023/09/07 01:03:39;;;;;;;16.98;12.07;;;;;;;;;;5043886;28;20543;-58
2023/09/07 01:06:13;;;;;;;22.08;12.23;;;;;;;;;;5033457;28;20029;-58
2023/09/07 01:08:48;;;;;;;19.77;12.57;;;;;;;;;;5047085;28;20095;-57
2023/09/07 01:11:18;;;;;;;17.42;12.05;;;;;;;;;;5048613;28;20330;-55
2023/09/07 01:13:43;;;;;;;18.87;12.33;;;;;;;;;;5048772;28;20142;-56
2023/09/07 01:16:10;;;;;;;20.67;13.23;;;;;;;;;;5031052;28;20136;-58
2023/09/07 01:18:40;;;;;;;20.50;13.32;;;;;;;;;;5035447;28;20087;-57
2023/09/07 01:21:07;;;;;;;22.15;13.70;;;;;;;;;;5036548;28;20029;-58
2023/09/07 01:23:38;;;;;;;18.70;13.18;;;;;;;;;;5044206;28;20037;-56
2023/09/07 01:26:06;;;;;;;19.48;13.40;;;;;;;;;;5046701;28;20029;-58
2023/09/07 01:28:32;;;;;;;22.70;13.82;;;;;;;;;;5029859;28;20029;-57
2023/09/07 01:30:58;;;;;;;19.35;13.35;;;;;;;;;;5030529;28;20044;-58
2023/09/07 01:33:23;;;;;;;16.75;12.80;;;;;;;;;;5053744;28;20033;-56
2023/09/07 01:35:49;;;;;;;20.10;13.02;;;;;;;;;;5057631;28;20062;-56
2023/09/07 01:38:14;;;;;;;18.33;12.05;;;;;;;;;;5055727;28;20116;-57
2023/09/07 01:40:39;;;;;;;16.98;11.82;;;;;;;;;;5057059;28;20099;-58
2023/09/07 01:43:05;;;;;;;18.35;11.90;;;;;;;;;;5057450;28;20025;-57
2023/09/07 01:45:30;;;;;;;17.48;11.70;;;;;;;;;;5056840;28;20492;-58
2023/09/07 01:47:55;;;;;;;15.90;11.43;;;;;;;;;;5043933;28;20057;-57
2023/09/07 01:50:21;;;;;;;16.55;11.85;;;;;;;;;;5049598;28;20036;-55
2023/09/07 01:52:49;;;;;;;15.98;11.10;;;;;;;;;;5056664;28;20041;-57
2023/09/07 01:55:15;;;;;;;16.17;10.52;;;;;;;;;;5055002;28;20033;-58
2023/09/07 01:57:40;;;;;;;15.95;10.65;;;;;;;;;;5044492;28;20036;-58
2023/09/07 02:00:06;;;;;;;15.63;9.70;;;;;;;;;;5037887;28;20458;-58
2023/09/07 02:02:34;;;;;;;15.05;9.90;;;;;;;;;;5045249;28;20028;-58
2023/09/07 02:05:00;;;;;;;14.32;9.63;;;;;;;;;;5057860;28;20029;-58
2023/09/07 02:07:25;;;;;;;14.65;9.63;;;;;;;;;;5052842;28;20030;-55
2023/09/07 02:09:51;;;;;;;15.40;9.85;;;;;;;;;;5057201;28;20457;-59
2023/09/07 02:12:16;;;;;;;13.73;9.55;;;;;;;;;;5049543;28;20045;-57
2023/09/07 02:14:42;;;;;;;13.30;9.38;;;;;;;;;;5041383;28;20123;-56
2023/09/07 02:17:07;;;;;;;13.48;9.15;;;;;;;;;;5054221;28;20044;-57
2023/09/07 02:19:33;;;;;;;14.07;9.57;;;;;;;;;;5036868;28;20021;-57
2023/09/07 02:21:58;;;;;;;15.68;9.85;;;;;;;;;;5043141;28;20523;-57
2023/09/07 02:24:23;;;;;;;12.23;8.90;;;;;;;;;;5056479;28;20032;-54
2023/09/07 02:26:49;;;;;;;12.40;8.85;;;;;;;;;;5056992;28;20082;-58
2023/09/07 02:29:15;;;;;;;16.40;8.98;;;;;;;;;;5048198;28;20025;-57
2023/09/07 02:31:41;;;;;;;14.93;8.63;;;;;;;;;;5056720;28;20255;-57
2023/09/07 02:34:06;;;;;;;14.15;8.50;;;;;;;;;;5055700;28;20393;-58
2023/09/07 02:36:34;;;;;;;13.65;8.43;;;;;;;;;;5057289;28;20028;-57
2023/09/07 02:39:01;;;;;;;11.02;8.27;;;;;;;;;;5053391;28;20025;-59
2023/09/07 02:41:26;;;;;;;15.30;8.73;;;;;;;;;;5034367;28;20040;-57
2023/09/07 02:43:52;;;;;;;14.75;8.25;;;;;;;;;;5050271;28;20362;-58
2023/09/07 02:46:17;;;;;;;12.50;8.25;;;;;;;;;;5045658;28;20040;-58
2023/09/07 02:48:43;;;;;;;13.40;8.65;;;;;;;;;;5035550;28;20056;-57
2023/09/07 02:51:08;;;;;;;13.32;8.20;;;;;;;;;;5054079;28;20032;-57
2023/09/07 02:53:33;;;;;;;12.93;8.30;;;;;;;;;;5052335;28;20032;-57
2023/09/07 02:56:01;;;;;;;11.95;8.30;;;;;;;;;;5045413;28;20029;-57
2023/09/07 02:58:27;;;;;;;12.30;8.23;;;;;;;;;;5032493;28;20033;-58
2023/09/07 03:00:52;;;;;;;10.00;7.70;;;;;;;;;;5042007;28;20051;-56
2023/09/07 03:03:18;;;;;;;14.45;8.65;;;;;;;;;;5047170;28;20436;-58
2023/09/07 03:05:44;;;;;;;15.65;8.75;;;;;;;;;;5052478;28;20027;-57
2023/09/07 03:08:10;;;;;;;14.23;8.85;;;;;;;;;;5052970;28;20075;-57
2023/09/07 03:10:37;;;;;;;20.25;9.15;;;;;;;;;;5052041;28;20060;-57
2023/09/07 03:13:03;;;;;;;16.58;9.15;;;;;;;;;;5047456;28;20035;-54
2023/09/07 03:15:29;;;;;;;14.50;9.30;;;;;;;;;;5039100;28;20041;-58
2023/09/07 03:17:54;;;;;;;12.68;8.80;;;;;;;;;;5051733;28;20466;-57
2023/09/07 03:20:19;;;;;;;12.98;8.30;;;;;;;;;;5046923;28;20145;-58
2023/09/07 03:22:45;;;;;;;13.13;8.32;;;;;;;;;;5032279;28;20033;-58
2023/09/07 03:25:11;;;;;;;12.57;8.90;;;;;;;;;;5040726;28;20464;-58
2023/09/07 03:27:37;;;;;;;14.75;8.50;;;;;;;;;;5051967;28;20044;-58
2023/09/07 03:30:04;;;;;;;13.23;8.35;;;;;;;;;;5051236;28;20033;-57
2023/09/07 03:32:32;;;;;;;17.27;9.10;;;;;;;;;;5046410;28;20025;-58
2023/09/07 03:35:02;;;;;;;17.40;8.40;;;;;;;;;;5042924;28;20033;-58
2023/09/07 03:37:28;;;;;;;13.80;8.40;;;;;;;;;;5048530;28;20120;-58
2023/09/07 03:39:54;;;;;;;13.05;9.20;;;;;;;;;;5041984;28;20542;-60
2023/09/07 03:42:20;;;;;;;15.00;8.88;;;;;;;;;;5048169;28;20158;-58
2023/09/07 03:44:45;;;;;;;14.38;8.45;;;;;;;;;;5033943;28;20120;-58
2023/09/07 03:47:13;;;;;;;12.70;8.65;;;;;;;;;;5038171;28;20032;-60
2023/09/07 03:49:38;;;;;;;14.30;8.27;;;;;;;;;;5038360;28;20042;-58
2023/09/07 03:52:04;;;;;;;12.18;8.95;;;;;;;;;;5033281;28;20454;-57
2023/09/07 03:54:31;;;;;;;11.55;8.10;;;;;;;;;;5050345;28;20039;-57
2023/09/07 03:56:57;;;;;;;13.13;8.88;;;;;;;;;;5047359;28;20029;-58
2023/09/07 03:59:22;;;;;;;12.25;8.00;;;;;;;;;;5041205;28;20036;-58
2023/09/07 04:01:47;;;;;;;15.15;8.65;;;;;;;;;;5048930;28;20681;-57
2023/09/07 04:04:13;;;;;;;12.52;8.85;;;;;;;;;;5051464;28;20025;-56
2023/09/07 04:06:38;;;;;;;15.07;9.13;;;;;;;;;;5052223;28;20057;-59
2023/09/07 04:09:05;;;;;;;13.25;8.43;;;;;;;;;;5042227;28;20029;-58
2023/09/07 04:11:30;;;;;;;12.82;8.88;;;;;;;;;;5043628;28;20036;-56
2023/09/07 04:13:55;;;;;;;10.57;8.13;;;;;;;;;;5040776;28;20033;-58
2023/09/07 04:16:21;;;;;;;12.68;8.45;;;;;;;;;;5032147;28;20049;-58
2023/09/07 04:18:46;;;;;;;11.90;8.43;;;;;;;;;;5046019;28;20252;-58
2023/09/07 04:21:12;;;;;;;12.50;8.63;;;;;;;;;;5035118;28;20644;-59
2023/09/07 04:23:38;;;;;;;11.68;7.90;;;;;;;;;;5032377;28;20194;-58
2023/09/07 04:26:11;;;;;;;13.80;8.38;;;;;;;;;;5048511;28;20072;-58
2023/09/07 04:28:37;;;;;;;12.52;9.00;;;;;;;;;;5047424;28;20063;-58
2023/09/07 04:31:03;;;;;;;13.70;8.98;;;;;;;;;;5049495;28;20170;-56
2023/09/07 04:33:33;;;;;;;12.30;8.68;;;;;;;;;;5045601;28;20037;-58
2023/09/07 04:36:12;;;;;;;14.75;8.70;;;;;;;;;;5051800;28;20542;-58
2023/09/07 04:38:38;;;;;;;14.90;8.25;;;;;;;;;;5046123;28;20473;-58
2023/09/07 04:41:11;;;;;;;11.95;8.63;;;;;;;;;;5038211;28;20029;-59
2023/09/07 04:43:38;;;;;;;18.65;8.50;;;;;;;;;;5048935;28;20063;-58
2023/09/07 04:46:04;;;;;;;11.43;7.85;;;;;;;;;;5046362;28;20037;-59
2023/09/07 04:48:29;;;;;;;10.68;7.53;;;;;;;;;;5040080;28;20032;-56
2023/09/07 04:51:06;;;;;;;8.93;7.22;;;;;;;;;;5040795;28;20041;-59
2023/09/07 04:53:33;;;;;;;17.45;7.72;;;;;;;;;;5050244;28;20504;-58
2023/09/07 04:55:59;;;;;;;10.73;7.50;;;;;;;;;;5050773;28;20037;-59
2023/09/07 04:58:24;;;;;;;12.48;7.38;;;;;;;;;;5036280;28;20381;-58
2023/09/07 05:00:50;;;;;;;18.85;8.18;;;;;;;;;;5029685;28;20044;-57
2023/09/07 05:03:16;;;;;;;14.57;8.05;;;;;;;;;;5046025;28;20040;-58
2023/09/07 05:05:43;;;;;;;11.98;7.85;;;;;;;;;;5043289;28;20026;-61
2023/09/07 05:08:09;;;;;;;12.35;8.15;;;;;;;;;;5050208;28;20465;-59
2023/09/07 05:10:35;;;;;;;10.77;7.93;;;;;;;;;;5049555;28;20385;-59
2023/09/07 05:13:00;;;;;;;11.32;8.05;;;;;;;;;;5050485;28;20032;-58
2023/09/07 05:15:26;;;;;;;11.63;7.57;;;;;;;;;;5040511;28;20103;-58
2023/09/07 05:17:52;;;;;;;10.32;7.88;;;;;;;;;;5041124;28;20033;-58
2023/09/07 05:20:17;;;;;;;14.63;7.93;;;;;;;;;;5039910;28;20504;-58
2023/09/07 05:22:43;;;;;;;11.45;7.53;;;;;;;;;;5040107;28;20120;-60
2023/09/07 05:25:09;;;;;;;12.15;7.95;;;;;;;;;;5042866;28;20120;-60
2023/09/07 05:27:35;;;;;;;11.00;7.32;;;;;;;;;;5049506;28;20109;-58
2023/09/07 05:30:02;;;;;;;13.27;7.80;;;;;;;;;;5050179;28;20061;-60
2023/09/07 05:32:27;;;;;;;11.23;7.55;;;;;;;;;;5050982;28;20480;-60
2023/09/07 05:34:52;;;;;;;9.95;8.10;;;;;;;;;;5050618;28;20493;-59
2023/09/07 05:37:18;;;;;;;15.55;7.80;;;;;;;;;;5037454;28;20489;-59
2023/09/07 05:39:43;;;;;;;12.18;7.95;;;;;;;;;;5030208;28;20029;-60
2023/09/07 05:42:08;;;;;;;13.90;7.97;;;;;;;;;;5047583;28;20057;-58
2023/09/07 05:44:34;;;;;;;11.77;7.50;;;;;;;;;;5050732;28;20436;-59
2023/09/07 05:46:59;;;;;;;9.65;7.60;;;;;;;;;;5050657;28;20104;-60
2023/09/07 05:49:25;;;;;;;11.02;7.57;;;;;;;;;;5049681;28;20033;-61
2023/09/07 05:51:50;;;;;;;10.82;7.45;;;;;;;;;;5050310;28;20100;-60
2023/09/07 05:54:16;;;;;;;12.75;7.95;;;;;;;;;;5051183;28;20067;-59
2023/09/07 05:56:41;;;;;;;10.30;7.72;;;;;;;;;;5049338;28;20469;-60
2023/09/07 05:59:06;;;;;;;10.93;7.60;;;;;;;;;;5035499;28;20448;-61
2023/09/07 06:01:32;;;;;;;12.57;7.63;;;;;;;;;;5037738;28;20044;-60
2023/09/07 06:03:58;;;;;;;11.40;8.18;;;;;;;;;;5050769;28;20090;-60
2023/09/07 06:06:24;;;;;;;13.40;8.13;;;;;;;;;;5050727;28;20120;-60
2023/09/07 06:08:50;;;;;;;14.32;7.90;;;;;;;;;;5050741;28;20104;-60
2023/09/07 06:11:15;;;;;;;11.82;7.70;;;;;;;;;;5049819;28;20063;-61
2023/09/07 06:13:41;;;;;;;14.98;7.40;;;;;;;;;;5035830;28;20428;-60
2023/09/07 06:16:07;;;;;;;9.45;6.78;;;;;;;;;;5041009;28;20045;-61
2023/09/07 06:18:32;;;;;;;12.07;6.85;;;;;;;;;;5051148;28;20545;-61
2023/09/07 06:20:58;;;;;;;11.23;7.30;;;;;;;;;;5053688;28;20052;-61
2023/09/07 06:23:24;;;;;;;14.25;8.18;;;;;;;;;;5053156;28;20377;-61
2023/09/07 06:25:49;;;;;;;11.68;7.93;;;;;;;;;;5052055;28;20056;-60
2023/09/07 06:28:15;;;;;;;12.75;7.93;;;;;;;;;;5054834;28;20037;-60
2023/09/07 06:30:40;;;;;;;12.07;7.97;;;;;;;;;;5040398;28;20115;-59
2023/09/07 06:33:06;;;;;;;11.30;7.80;;;;;;;;;;5052322;28;20037;-60
2023/09/07 06:35:31;;;;;;;13.68;8.20;;;;;;;;;;5033291;28;20091;-60
2023/09/07 06:37:57;;;;;;;11.73;8.23;;;;;;;;;;5051116;28;20078;-58
2023/09/07 06:40:22;;;;;;;12.80;8.07;;;;;;;;;;5052766;28;20103;-58
2023/09/07 06:42:47;;;;;;;15.07;8.48;;;;;;;;;;5052583;28;20031;-60
2023/09/07 06:45:13;;;;;;;14.25;8.32;;;;;;;;;;5054608;28;20090;-60
2023/09/07 06:47:39;;;;;;;12.80;8.52;;;;;;;;;;5051962;28;20039;-60
2023/09/07 06:50:05;;;;;;;17.17;8.95;;;;;;;;;;5039456;28;20465;-60
2023/09/07 06:52:31;;;;;;;13.30;8.13;;;;;;;;;;5054044;28;20458;-60
2023/09/07 06:54:56;;;;;;;11.55;8.45;;;;;;;;;;5051972;28;20036;-59
2023/09/07 06:57:22;;;;;;;12.25;8.50;;;;;;;;;;5053987;28;20061;-60
2023/09/07 06:59:48;;;;;;;14.25;8.65;;;;;;;;;;5052755;28;20032;-60
2023/09/07 07:02:14;;;;;;;19.67;8.90;;;;;;;;;;5053855;28;20021;-60
2023/09/07 07:04:39;;;;;;;12.18;8.70;;;;;;;;;;5051972;28;20085;-59
2023/09/07 07:07:05;;;;;;;11.60;8.13;;;;;;;;;;5052990;28;20039;-60
2023/09/07 07:09:31;;;;;;;15.38;8.43;;;;;;;;;;5051942;28;20033;-60
2023/09/07 07:11:59;;;;;;;13.10;8.52;;;;;;;;;;5053000;28;20032;-57
2023/09/07 07:14:25;;;;;;;13.35;8.40;;;;;;;;;;5053645;28;20155;-58
2023/09/07 07:16:51;;;;;;;13.23;8.77;;;;;;;;;;5052740;28;20481;-58
2023/09/07 07:19:16;;;;;;;17.23;8.00;;;;;;;;;;5053216;28;20041;-60
2023/09/07 07:21:41;;;;;;;14.23;8.30;;;;;;;;;;5052440;28;20021;-60
2023/09/07 07:24:07;;;;;;;15.55;8.50;;;;;;;;;;5040476;28;20031;-60
2023/09/07 07:26:33;;;;;;;15.52;8.90;;;;;;;;;;5052132;28;20029;-60
2023/09/07 07:28:58;;;;;;;11.32;8.48;;;;;;;;;;5051507;28;20133;-60
2023/09/07 07:31:24;;;;;;;13.13;8.35;;;;;;;;;;5052871;28;20036;-60
2023/09/07 07:33:49;;;;;;;14.57;9.00;;;;;;;;;;5051000;28;20029;-60
2023/09/07 07:36:15;;;;;;;11.95;8.20;;;;;;;;;;5050410;28;20793;-60
2023/09/07 07:38:41;;;;;;;13.25;8.48;;;;;;;;;;5052586;28;20108;-59
2023/09/07 07:41:06;;;;;;;13.65;8.73;;;;;;;;;;5050395;28;20039;-59
2023/09/07 07:43:33;;;;;;;13.68;8.35;;;;;;;;;;5051186;28;20068;-60
2023/09/07 07:45:59;;;;;;;12.43;8.63;;;;;;;;;;5051658;28;20040;-62
2023/09/07 07:48:25;;;;;;;14.93;8.40;;;;;;;;;;5052782;28;20071;-61
2023/09/07 07:50:50;;;;;;;14.95;9.32;;;;;;;;;;5051718;28;20178;-60
2023/09/07 07:53:15;;;;;;;16.38;9.25;;;;;;;;;;5051222;28;20381;-61
2023/09/07 07:55:41;;;;;;;12.07;8.38;;;;;;;;;;5052405;28;20036;-57
2023/09/07 07:58:08;;;;;;;16.98;8.90;;;;;;;;;;5051004;28;20037;-61
2023/09/07 08:00:35;;;;;;;13.15;8.70;;;;;;;;;;5042429;28;20026;-61
2023/09/07 08:03:02;;;;;;;17.35;9.40;;;;;;;;;;5039328;28;20052;-60
2023/09/07 08:05:28;;;;;;;15.75;8.40;;;;;;;;;;5032896;28;20455;-61
2023/09/07 08:07:54;;;;;;;12.93;8.20;;;;;;;;;;5032157;28;20079;-60
2023/09/07 08:10:19;;;;;;;14.30;8.50;;;;;;;;;;5032865;28;20057;-60
2023/09/07 08:12:45;;;;;;;13.60;8.10;;;;;;;;;;5043858;28;20035;-59
2023/09/07 08:15:10;;;;;;;18.48;8.27;;;;;;;;;;5052404;28;20051;-61
2023/09/07 08:17:36;;;;;;;12.10;7.50;;;;;;;;;;5052286;28;20036;-60
2023/09/07 08:20:03;;;;;;;13.45;7.38;;;;;;;;;;5051566;28;20595;-60
2023/09/07 08:22:28;;;;;;;12.48;7.32;;;;;;;;;;5049121;28;20033;-60
2023/09/07 08:24:55;;;;;;;12.13;6.80;;;;;;;;;;5050952;28;20411;-60
2023/09/07 08:27:21;;;;;;;13.18;7.05;;;;;;;;;;5043008;28;20389;-60
2023/09/07 08:29:48;;;;;;;10.82;6.90;;;;;;;;;;5041359;28;20033;-59
2023/09/07 08:32:14;;;;;;;14.57;6.85;;;;;;;;;;5050948;28;20063;-60
2023/09/07 08:34:41;;;;;;;12.23;7.00;;;;;;;;;;5050445;28;20064;-58
2023/09/07 08:37:08;;;;;;;13.90;6.85;;;;;;;;;;5039956;28;20044;-58
2023/09/07 08:39:34;;;;;;;11.13;6.18;;;;;;;;;;5032184;28;20033;-58
2023/09/07 08:42:00;;;;;;;11.60;6.97;;;;;;;;;;5033158;28;20043;-59
2023/09/07 08:44:26;;;;;;;11.63;6.30;;;;;;;;;;5051972;28;20028;-59
2023/09/07 08:46:52;;;;;;;9.10;6.07;;;;;;;;;;5050600;28;20360;-58
2023/09/07 08:49:23;;;;;;;9.82;5.90;;;;;;;;;;5052081;28;20120;-59
2023/09/07 08:51:49;;;;;;;10.30;5.78;;;;;;;;;;5049168;28;20064;-58
2023/09/07 08:54:15;;;;;;;11.55;5.60;;;;;;;;;;5050604;28;20044;-59
2023/09/07 08:56:40;;;;;;;14.13;5.10;;;;;;;;;;5050413;28;20037;-59
2023/09/07 08:59:06;;;;;;;11.65;5.38;;;;;;;;;;5050208;28;20128;-59
2023/09/07 09:01:31;;;;;;;11.07;5.20;;;;;;;;;;5051739;28;20033;-59
2023/09/07 09:03:58;;;;;;;11.40;5.32;;;;;;;;;;5049316;28;20048;-59
2023/09/07 09:06:23;;;;;;;11.15;5.57;;;;;;;;;;5043049;28;20044;-59
2023/09/07 09:08:50;;;;;;;7.05;4.80;;;;;;;;;;5046754;28;20045;-59
2023/09/07 09:11:19;;;;;;;11.75;4.63;;;;;;;;;;5051549;28;20033;-59
2023/09/07 09:13:45;;;;;;;8.85;4.72;;;;;;;;;;5042381;28;20060;-58
2023/09/07 09:16:12;;;;;;;10.38;4.50;;;;;;;;;;5036017;28;20041;-59
2023/09/07 09:18:39;;;;;;;8.60;4.60;;;;;;;;;;5051390;28;20531;-59
2023/09/07 09:21:05;;;;;;;7.15;4.38;;;;;;;;;;5046773;28;20630;-57
2023/09/07 09:23:35;;;;;;;8.25;4.43;;;;;;;;;;5050935;28;20028;-58
2023/09/07 09:26:03;;;;;;;9.80;4.53;;;;;;;;;;5046307;28;20433;-57
2023/09/07 09:28:31;;;;;;;11.10;4.80;;;;;;;;;;5051484;28;20098;-60
2023/09/07 09:30:57;;;;;;;6.78;4.38;;;;;;;;;;5048813;28;20064;-57
2023/09/07 09:33:23;;;;;;;7.70;4.25;;;;;;;;;;5043227;28;20037;-57
2023/09/07 09:35:50;;;;;;;8.10;4.20;;;;;;;;;;5048793;28;20040;-57
2023/09/07 09:38:16;;;;;;;6.43;4.50;;;;;;;;;;5050383;28;20492;-60
2023/09/07 09:40:42;;;;;;;9.55;4.32;;;;;;;;;;5033826;28;20470;-59
2023/09/07 09:43:08;;;;;;;8.45;4.45;;;;;;;;;;5050060;28;20085;-59
2023/09/07 09:45:35;;;;;;;7.05;4.55;;;;;;;;;;5049723;28;20097;-59
2023/09/07 09:48:01;;;;;;;10.15;4.70;;;;;;;;;;5050058;28;20048;-58
2023/09/07 09:50:27;;;;;;;11.88;4.72;;;;;;;;;;5050706;28;20115;-59
2023/09/07 09:52:53;;;;;;;9.27;4.05;;;;;;;;;;5050157;28;20046;-58
2023/09/07 09:55:19;;;;;;;11.10;4.70;;;;;;;;;;5054426;28;20048;-59
2023/09/07 09:57:45;;;;;;;8.23;4.10;;;;;;;;;;5054870;28;20045;-60
2023/09/07 10:00:19;;;;;;;9.02;4.15;;;;;;;;;;5049257;28;20033;-59
2023/09/07 10:02:54;;;;;;;7.00;4.35;;;;;;;;;;5043187;28;20545;-59
2023/09/07 10:05:20;;;;;;;15.07;4.80;;;;;;;;;;5053783;28;20151;-60
2023/09/07 10:07:50;;;;;;;7.57;4.18;;;;;;;;;;5054131;28;20059;-60
2023/09/07 10:10:18;;;;;;;9.38;4.75;;;;;;;;;;5054541;28;20048;-60
2023/09/07 10:12:45;;;;;;;8.57;4.35;;;;;;;;;;5054195;28;20033;-59
2023/09/07 10:15:24;;;;;;;7.38;4.00;;;;;;;;;;5053946;28;20136;-58
2023/09/07 10:17:50;;;;;;;7.13;4.43;;;;;;;;;;5045105;28;20028;-58
2023/09/07 10:20:17;;;;;;;10.57;4.50;;;;;;;;;;5052913;28;20036;-58
2023/09/07 10:22:43;;;;;;;8.45;4.57;;;;;;;;;;5045531;28;20094;-60
2023/09/07 10:25:22;;;;;;;9.75;4.20;;;;;;;;;;5054250;28;20469;-61
2023/09/07 10:27:48;;;;;;;7.93;4.20;;;;;;;;;;5053537;28;20029;-61
2023/09/07 10:30:19;;;;;;;9.75;4.43;;;;;;;;;;5046235;28;20072;-61
2023/09/07 10:32:45;;;;;;;8.35;4.35;;;;;;;;;;5047199;28;20478;-60
2023/09/07 10:35:15;;;;;;;6.65;4.40;;;;;;;;;;5052350;28;20044;-60
2023/09/07 10:37:41;;;;;;;12.05;4.50;;;;;;;;;;5053251;28;20075;-60
2023/09/07 10:40:11;;;;;;;7.28;4.45;;;;;;;;;;5053031;28;20060;-60
2023/09/07 10:42:37;;;;;;;9.57;4.30;;;;;;;;;;5054245;28;20103;-59
2023/09/07 10:45:17;;;;;;;7.50;4.35;;;;;;;;;;5052034;28;20678;-60
2023/09/07 10:47:43;;;;;;;7.53;4.30;;;;;;;;;;5041557;28;20026;-60
2023/09/07 10:50:13;;;;;;;8.05;4.32;;;;;;;;;;5054133;28;20047;-60
2023/09/07 10:52:41;;;;;;;8.50;4.32;;;;;;;;;;5053891;28;20024;-61
2023/09/07 10:55:07;;;;;;;6.13;4.38;;;;;;;;;;5053541;28;20043;-60
2023/09/07 10:57:42;;;;;;;6.53;4.50;;;;;;;;;;5054296;28;20112;-60
2023/09/07 11:00:10;;;;;;;7.38;4.40;;;;;;;;;;5052327;28;20527;-59
2023/09/07 11:02:37;;;;;;;6.18;4.35;;;;;;;;;;5054242;28;20025;-57
2023/09/07 11:05:03;;;;;;;8.52;4.43;;;;;;;;;;5032471;28;20712;-59
2023/09/07 11:07:28;;;;;;;9.57;4.45;;;;;;;;;;5034059;28;20120;-60
2023/09/07 11:09:54;;;;;;;6.93;4.38;;;;;;;;;;5043768;28;20393;-59
2023/09/07 11:12:21;;;;;;;11.38;4.97;;;;;;;;;;5053875;28;20029;-59
2023/09/07 11:14:54;;;;;;;8.48;4.72;;;;;;;;;;5048752;28;20151;-57
2023/09/07 11:17:26;;;;;;;9.70;4.32;;;;;;;;;;5053816;28;20409;-59
2023/09/07 11:19:52;;;;;;;6.50;4.18;;;;;;;;;;5050666;28;20041;-58
2023/09/07 11:22:19;;;;;;;10.23;4.32;;;;;;;;;;5045896;28;20156;-59
2023/09/07 11:24:45;;;;;;;8.63;4.15;;;;;;;;;;5035930;28;20034;-58
2023/09/07 11:27:11;;;;;;;8.65;4.28;;;;;;;;;;5033498;28;20029;-59
2023/09/07 11:29:36;;;;;;;9.60;4.65;;;;;;;;;;5048822;28;20040;-61
2023/09/07 11:32:09;;;;;;;10.30;4.40;;;;;;;;;;5031769;28;20100;-61
2023/09/07 11:34:35;;;;;;;6.57;4.35;;;;;;;;;;5045827;28;20070;-59
2023/09/07 11:37:04;;;;;;;6.72;4.65;;;;;;;;;;5032740;28;20030;-58
2023/09/07 11:39:29;;;;;;;10.45;4.75;;;;;;;;;;5048004;28;20068;-59
2023/09/07 11:41:54;;;;;;;6.90;4.70;;;;;;;;;;5051219;28;20118;-59
2023/09/07 11:44:20;;;;;;;9.85;4.80;;;;;;;;;;5053413;28;20064;-60
2023/09/07 11:46:46;;;;;;;5.38;4.60;;;;;;;;;;5052694;28;20032;-59
2023/09/07 11:49:11;;;;;;;8.35;5.05;;;;;;;;;;5052764;28;20401;-61
2023/09/07 11:51:37;;;;;;;8.98;4.95;;;;;;;;;;5052613;28;20087;-60
2023/09/07 11:54:03;;;;;;;7.85;5.38;;;;;;;;;;5049838;28;20533;-61
2023/09/07 11:56:28;;;;;;;7.15;5.28;;;;;;;;;;5043412;28;20504;-60
2023/09/07 11:58:55;;;;;;;7.93;5.18;;;;;;;;;;5047948;28;20060;-60
2023/09/07 12:01:20;;;;;;;8.52;5.10;;;;;;;;;;5051824;28;20461;-59
2023/09/07 12:03:47;;;;;;;7.30;5.60;;;;;;;;;;5038788;28;20025;-59
2023/09/07 12:06:13;;;;;;;6.38;5.63;;;;;;;;;;5051949;28;20384;-60
2023/09/07 12:08:42;;;;;;;6.88;5.50;;;;;;;;;;5052676;28;20107;-60
2023/09/07 12:11:07;;;;;;;7.18;5.55;;;;;;;;;;5051855;28;20029;-60
2023/09/07 12:13:32;;;;;;;10.85;5.93;;;;;;;;;;5051516;28;20389;-59
2023/09/07 12:15:58;;;;;;;6.30;5.68;;;;;;;;;;5049953;28;20037;-60
2023/09/07 12:18:23;;;;;;;7.75;5.43;;;;;;;;;;5034568;28;20405;-60
2023/09/07 12:20:49;;;;;;;9.32;5.53;;;;;;;;;;5051945;28;20461;-59
2023/09/07 12:23:14;;;;;;;6.85;5.95;;;;;;;;;;5051333;28;20116;-60
2023/09/07 12:25:40;;;;;;;9.13;5.97;;;;;;;;;;5045573;28;20033;-59
2023/09/07 12:28:05;;;;;;;6.72;6.05;;;;;;;;;;5031595;28;20634;-60
2023/09/07 12:30:31;;;;;;;7.88;5.65;;;;;;;;;;5047892;28;20508;-59
2023/09/07 12:32:56;;;;;;;9.48;5.80;;;;;;;;;;5063457;28;20455;-60
2023/09/07 12:35:21;;;;;;;8.00;5.82;;;;;;;;;;5049532;28;20111;-60
2023/09/07 12:37:47;;;;;;;8.40;5.78;;;;;;;;;;5051334;28;20074;-59
2023/09/07 12:40:12;;;;;;;8.30;5.85;;;;;;;;;;5050649;28;20033;-60
2023/09/07 12:42:44;;;;;;;8.68;5.85;;;;;;;;;;5051994;28;20035;-60
2023/09/07 12:45:14;;;;;;;7.65;6.40;;;;;;;;;;5047213;28;20040;-60
2023/09/07 12:47:40;;;;;;;6.72;5.85;;;;;;;;;;5037435;28;20063;-60
2023/09/07 12:50:06;;;;;;;8.93;5.50;;;;;;;;;;5050741;28;20524;-60
2023/09/07 12:52:34;;;;;;;9.80;6.18;;;;;;;;;;5050608;28;20464;-59
2023/09/07 12:54:59;;;;;;;9.25;6.50;;;;;;;;;;5049057;28;20029;-59
2023/09/07 12:57:25;;;;;;;6.68;5.97;;;;;;;;;;5050890;28;20436;-60
2023/09/07 12:59:50;;;;;;;12.95;6.20;;;;;;;;;;5048937;28;20111;-59
2023/09/07 13:02:16;;;;;;;8.15;6.05;;;;;;;;;;5051639;28;20029;-60
2023/09/07 13:04:44;;;;;;;9.23;6.45;;;;;;;;;;5049797;28;20071;-60
2023/09/07 13:07:09;;;;;;;9.05;6.50;;;;;;;;;;5039118;28;20041;-60
2023/09/07 13:09:34;;;;;;;7.03;6.25;;;;;;;;;;5040996;28;20124;-61
2023/09/07 13:12:00;;;;;;;10.73;6.60;;;;;;;;;;5050413;28;20031;-60
2023/09/07 13:14:25;;;;;;;9.65;6.25;;;;;;;;;;5038486;28;20033;-60
2023/09/07 13:16:51;;;;;;;8.75;6.47;;;;;;;;;;5029069;28;20045;-60
2023/09/07 13:19:16;;;;;;;9.20;6.28;;;;;;;;;;5036385;28;20091;-60
2023/09/07 13:21:42;;;;;;;7.40;6.47;;;;;;;;;;5051422;28;20444;-60
2023/09/07 13:24:07;;;;;;;7.80;6.18;;;;;;;;;;5049299;28;20462;-60
2023/09/07 13:26:33;;;;;;;11.25;6.30;;;;;;;;;;5036540;28;20116;-61
2023/09/07 13:28:58;;;;;;;6.90;6.07;;;;;;;;;;5033648;28;20029;-60
2023/09/07 13:31:24;;;;;;;9.35;6.85;;;;;;;;;;5051290;28;20393;-61
2023/09/07 13:33:49;;;;;;;9.32;6.20;;;;;;;;;;5048846;28;20037;-60
2023/09/07 13:36:15;;;;;;;7.43;6.40;;;;;;;;;;5035670;28;20401;-61
2023/09/07 13:38:41;;;;;;;6.90;6.20;;;;;;;;;;5031218;28;20030;-60
2023/09/07 13:41:06;;;;;;;6.93;6.13;;;;;;;;;;5050607;28;20570;-60
2023/09/07 13:43:32;;;;;;;9.98;6.75;;;;;;;;;;5051454;28;20120;-60
2023/09/07 13:45:57;;;;;;;7.30;6.60;;;;;;;;;;5049746;28;20440;-60
2023/09/07 13:48:23;;;;;;;10.50;6.82;;;;;;;;;;5049929;28;20032;-60
2023/09/07 13:50:48;;;;;;;9.70;6.70;;;;;;;;;;5048497;28;20056;-60
2023/09/07 13:53:14;;;;;;;8.65;6.47;;;;;;;;;;5050794;28;20029;-61
2023/09/07 13:55:41;;;;;;;8.25;6.60;;;;;;;;;;5050898;28;20037;-60
2023/09/07 13:58:07;;;;;;;8.25;6.35;;;;;;;;;;5048734;28;20031;-60
2023/09/07 14:00:32;;;;;;;7.40;6.57;;;;;;;;;;5050996;28;20436;-61
2023/09/07 14:02:58;;;;;;;7.35;6.65;;;;;;;;;;5047492;28;20052;-60
2023/09/07 14:05:23;;;;;;;6.93;6.20;;;;;;;;;;5050192;28;20033;-61
2023/09/07 14:07:49;;;;;;;8.05;6.57;;;;;;;;;;5050344;28;20040;-61
2023/09/07 14:10:14;;;;;;;6.85;6.20;;;;;;;;;;5050844;28;20037;-60
2023/09/07 14:12:40;;;;;;;9.85;6.57;;;;;;;;;;5047848;28;20183;-60
2023/09/07 14:15:05;;;;;;;7.45;6.63;;;;;;;;;;5049675;28;20032;-60
2023/09/07 14:17:31;;;;;;;6.90;6.20;;;;;;;;;;5050051;28;20029;-60
2023/09/07 14:19:56;;;;;;;9.25;6.65;;;;;;;;;;5048953;28;20465;-60
2023/09/07 14:22:22;;;;;;;9.20;6.43;;;;;;;;;;5049723;28;20029;-60
2023/09/07 14:24:47;;;;;;;7.90;6.50;;;;;;;;;;5037428;28;20025;-59
2023/09/07 14:27:13;;;;;;;7.45;6.40;;;;;;;;;;5050773;28;20029;-60